| time (UTC) | temp F | wind direction | speed knots | gust knots | rain 1hr in | rain 24hr in | rain mn in | humidity % | barometer mb |
| 20260507053828 | 65 | 0.0 | 0.0 | 0.00 | 0.00 | 0.00 | 33 | 970.0 | |
| 20260506190037 | 89 | 0.0 | 0.0 | 0.00 | 0.00 | 0.00 | 27 | 965.4 | |
| 20260506185536 | 90 | 0.0 | 0.0 | 0.00 | 0.00 | 0.00 | 27 | 965.4 | |
| 20260506185037 | 90 | 0.0 | 0.0 | 0.00 | 0.00 | 0.00 | 27 | 965.3 | |
| 20260506173250 | 96 | 0.0 | 0.0 | 0.00 | 0.00 | 0.00 | 27 | 959.6 | |
| 20260506172750 | 96 | 0.0 | 0.0 | 0.00 | 0.00 | 0.00 | 26 | 959.7 | |
| 20260506172250 | 96 | 0.0 | 0.0 | 0.00 | 0.00 | 0.00 | 26 | 959.5 | |
| 20260506171750 | 97 | 0.0 | 0.0 | 0.00 | 0.00 | 0.00 | 26 | 959.6 | |
| 20260506171250 | 97 | 0.0 | 0.0 | 0.00 | 0.00 | 0.00 | 26 | 959.6 | |
| 20260506170750 | 97 | 0.0 | 0.0 | 0.00 | 0.00 | 0.00 | 26 | 959.5 | |
| 20260506170250 | 97 | 0.0 | 0.0 | 0.00 | 0.00 | 0.00 | 26 | 959.5 | |
| 20260506165750 | 97 | 0.0 | 0.0 | 0.00 | 0.00 | 0.00 | 26 | 959.5 | |
| 20260506165250 | 98 | 0.0 | 0.0 | 0.00 | 0.00 | 0.00 | 26 | 959.5 | |
| 20260506164750 | 98 | 0.0 | 0.0 | 0.00 | 0.00 | 0.00 | 25 | 959.6 | |
| 20260506164250 | 98 | 0.0 | 0.0 | 0.00 | 0.00 | 0.00 | 26 | 959.6 | |
| 20260506163750 | 98 | 0.0 | 0.0 | 0.00 | 0.00 | 0.00 | 26 | 959.6 | |
| 20260506163250 | 98 | 0.0 | 0.0 | 0.00 | 0.00 | 0.00 | 26 | 959.6 | |
| 20260506162751 | 98 | 0.0 | 0.0 | 0.00 | 0.00 | 0.00 | 25 | 959.7 | |
| 20260506162250 | 99 | 0.0 | 0.0 | 0.00 | 0.00 | 0.00 | 25 | 959.6 | |
| 20260506161750 | 99 | 0.0 | 0.0 | 0.00 | 0.00 | 0.00 | 25 | 959.6 | |
| 20260506161250 | 99 | 0.0 | 0.0 | 0.00 | 0.00 | 0.00 | 25 | 959.7 | |
| 20260506155750 | 100 | 0.0 | 0.0 | 0.00 | 0.00 | 0.00 | 24 | 959.9 | |
| 20260506155251 | 101 | 0.0 | 0.0 | 0.00 | 0.00 | 0.00 | 24 | 959.9 | |
| 20260506154750 | 101 | 0.0 | 0.0 | 0.00 | 0.00 | 0.00 | 24 | 960.0 | |
| 20260506154250 | 101 | 0.0 | 0.0 | 0.00 | 0.00 | 0.00 | 25 | 960.0 | |
| 20260506153750 | 101 | 0.0 | 0.0 | 0.00 | 0.00 | 0.00 | 25 | 960.0 | |
| 20260506153250 | 100 | 0.0 | 0.0 | 0.00 | 0.00 | 0.00 | 25 | 959.9 | |
| 20260506152750 | 100 | 0.0 | 0.0 | 0.00 | 0.00 | 0.00 | 25 | 960.0 | |
| 20260506152250 | 99 | 0.0 | 0.0 | 0.00 | 0.00 | 0.00 | 26 | 960.0 | |
| 20260506151750 | 99 | 0.0 | 0.0 | 0.00 | 0.00 | 0.00 | 26 | 960.1 | |
| 20260506151250 | 99 | 0.0 | 0.0 | 0.00 | 0.00 | 0.00 | 26 | 960.1 | |
| 20260506150750 | 101 | 0.0 | 0.0 | 0.00 | 0.00 | 0.00 | 25 | 960.1 | |
| 20260506150250 | 100 | 0.0 | 0.0 | 0.00 | 0.00 | 0.00 | 26 | 963.3 | |
| 20260506145745 | 97 | 0.0 | 0.0 | 0.00 | 0.00 | 0.00 | 28 | 965.7 | |
| 20260506145245 | 93 | 0.0 | 0.0 | 0.00 | 0.00 | 0.00 | 29 | 971.6 | |
| 20260506144745 | 90 | 0.0 | 0.0 | 0.00 | 0.00 | 0.00 | 30 | 979.7 | |
| 20260506144245 | 86 | 0.0 | 0.0 | 0.00 | 0.00 | 0.00 | 33 | 987.0 |